sensor_id;sensor_type;location;lat;lon;timestamp;P1;durP1;ratioP1;P2;durP2;ratioP2
5195;SDS011;2617;51.006;12.436;2024-03-29T00:00:53;0.63;;;0.63;;
5195;SDS011;2617;51.006;12.436;2024-03-29T00:05:55;1.40;;;0.60;;
5195;SDS011;2617;51.006;12.436;2024-03-29T00:10:58;0.70;;;0.70;;
5195;SDS011;2617;51.006;12.436;2024-03-29T00:16:01;0.50;;;0.50;;
5195;SDS011;2617;51.006;12.436;2024-03-29T00:21:03;1.33;;;0.70;;
5195;SDS011;2617;51.006;12.436;2024-03-29T00:26:06;0.70;;;0.70;;
5195;SDS011;2617;51.006;12.436;2024-03-29T00:31:08;0.50;;;0.50;;
5195;SDS011;2617;51.006;12.436;2024-03-29T00:36:11;0.82;;;0.70;;
5195;SDS011;2617;51.006;12.436;2024-03-29T00:41:14;0.70;;;0.70;;
5195;SDS011;2617;51.006;12.436;2024-03-29T00:46:16;0.50;;;0.50;;
5195;SDS011;2617;51.006;12.436;2024-03-29T00:51:19;1.37;;;0.60;;
5195;SDS011;2617;51.006;12.436;2024-03-29T00:56:21;0.62;;;0.50;;
5195;SDS011;2617;51.006;12.436;2024-03-29T01:01:24;0.70;;;0.70;;
5195;SDS011;2617;51.006;12.436;2024-03-29T01:06:26;1.62;;;0.60;;
5195;SDS011;2617;51.006;12.436;2024-03-29T01:11:29;1.03;;;0.90;;
5195;SDS011;2617;51.006;12.436;2024-03-29T01:16:32;0.60;;;0.60;;
5195;SDS011;2617;51.006;12.436;2024-03-29T01:21:34;0.50;;;0.50;;
5195;SDS011;2617;51.006;12.436;2024-03-29T01:26:37;7.30;;;1.10;;
5195;SDS011;2617;51.006;12.436;2024-03-29T01:31:41;0.70;;;0.60;;
5195;SDS011;2617;51.006;12.436;2024-03-29T01:36:43;0.77;;;0.77;;
5195;SDS011;2617;51.006;12.436;2024-03-29T01:41:47;1.67;;;0.75;;
5195;SDS011;2617;51.006;12.436;2024-03-29T01:46:50;2.30;;;0.73;;
5195;SDS011;2617;51.006;12.436;2024-03-29T01:51:52;0.65;;;0.60;;
5195;SDS011;2617;51.006;12.436;2024-03-29T01:56:55;5.83;;;0.80;;
5195;SDS011;2617;51.006;12.436;2024-03-29T02:01:57;1.90;;;0.80;;
5195;SDS011;2617;51.006;12.436;2024-03-29T02:06:59;0.67;;;0.67;;
5195;SDS011;2617;51.006;12.436;2024-03-29T02:12:02;0.97;;;0.70;;
5195;SDS011;2617;51.006;12.436;2024-03-29T02:17:05;0.60;;;0.60;;
5195;SDS011;2617;51.006;12.436;2024-03-29T02:22:07;1.13;;;0.60;;
5195;SDS011;2617;51.006;12.436;2024-03-29T02:27:09;1.23;;;0.97;;
5195;SDS011;2617;51.006;12.436;2024-03-29T02:32:13;1.47;;;0.80;;
5195;SDS011;2617;51.006;12.436;2024-03-29T02:37:15;1.23;;;0.70;;
5195;SDS011;2617;51.006;12.436;2024-03-29T02:42:19;0.85;;;0.50;;
5195;SDS011;2617;51.006;12.436;2024-03-29T02:47:21;0.77;;;0.70;;
5195;SDS011;2617;51.006;12.436;2024-03-29T02:52:23;0.70;;;0.70;;
5195;SDS011;2617;51.006;12.436;2024-03-29T02:57:26;1.33;;;0.50;;
5195;SDS011;2617;51.006;12.436;2024-03-29T03:02:28;1.00;;;0.67;;
5195;SDS011;2617;51.006;12.436;2024-03-29T03:07:31;2.00;;;0.70;;
5195;SDS011;2617;51.006;12.436;2024-03-29T03:12:38;0.80;;;0.80;;
5195;SDS011;2617;51.006;12.436;2024-03-29T03:17:41;1.17;;;0.80;;
5195;SDS011;2617;51.006;12.436;2024-03-29T03:22:44;0.60;;;0.60;;
5195;SDS011;2617;51.006;12.436;2024-03-29T03:27:46;2.40;;;0.60;;
5195;SDS011;2617;51.006;12.436;2024-03-29T03:32:49;0.70;;;0.70;;
5195;SDS011;2617;51.006;12.436;2024-03-29T03:37:51;1.43;;;0.70;;
5195;SDS011;2617;51.006;12.436;2024-03-29T03:42:54;0.60;;;0.60;;
5195;SDS011;2617;51.006;12.436;2024-03-29T03:47:57;0.57;;;0.50;;
5195;SDS011;2617;51.006;12.436;2024-03-29T03:52:59;2.10;;;0.80;;
5195;SDS011;2617;51.006;12.436;2024-03-29T03:58:02;2.43;;;0.70;;
5195;SDS011;2617;51.006;12.436;2024-03-29T04:03:04;0.60;;;0.60;;
5195;SDS011;2617;51.006;12.436;2024-03-29T04:08:07;2.78;;;0.60;;
5195;SDS011;2617;51.006;12.436;2024-03-29T04:13:09;1.30;;;0.70;;
5195;SDS011;2617;51.006;12.436;2024-03-29T04:18:12;2.00;;;0.83;;
5195;SDS011;2617;51.006;12.436;2024-03-29T04:23:14;5.03;;;1.10;;
5195;SDS011;2617;51.006;12.436;2024-03-29T04:28:16;1.97;;;0.93;;
5195;SDS011;2617;51.006;12.436;2024-03-29T04:33:19;3.37;;;0.60;;
5195;SDS011;2617;51.006;12.436;2024-03-29T04:38:22;0.50;;;0.50;;
5195;SDS011;2617;51.006;12.436;2024-03-29T04:43:28;0.50;;;0.50;;
5195;SDS011;2617;51.006;12.436;2024-03-29T04:48:31;2.37;;;0.75;;
5195;SDS011;2617;51.006;12.436;2024-03-29T04:53:35;0.80;;;0.70;;
5195;SDS011;2617;51.006;12.436;2024-03-29T04:58:38;0.70;;;0.70;;
5195;SDS011;2617;51.006;12.436;2024-03-29T05:03:42;0.93;;;0.80;;
5195;SDS011;2617;51.006;12.436;2024-03-29T05:08:44;0.70;;;0.70;;
5195;SDS011;2617;51.006;12.436;2024-03-29T05:13:47;0.50;;;0.50;;
5195;SDS011;2617;51.006;12.436;2024-03-29T05:18:51;0.60;;;0.60;;
5195;SDS011;2617;51.006;12.436;2024-03-29T05:23:53;1.53;;;0.60;;
5195;SDS011;2617;51.006;12.436;2024-03-29T05:28:56;1.20;;;0.80;;
5195;SDS011;2617;51.006;12.436;2024-03-29T05:33:59;2.25;;;1.70;;
5195;SDS011;2617;51.006;12.436;2024-03-29T05:39:01;2.10;;;1.57;;
5195;SDS011;2617;51.006;12.436;2024-03-29T05:44:04;1.30;;;0.70;;
5195;SDS011;2617;51.006;12.436;2024-03-29T05:49:07;0.90;;;0.67;;
5195;SDS011;2617;51.006;12.436;2024-03-29T05:54:10;0.70;;;0.70;;
5195;SDS011;2617;51.006;12.436;2024-03-29T05:59:12;0.50;;;0.50;;
5195;SDS011;2617;51.006;12.436;2024-03-29T06:04:14;1.83;;;1.00;;
5195;SDS011;2617;51.006;12.436;2024-03-29T06:09:17;1.03;;;0.93;;
5195;SDS011;2617;51.006;12.436;2024-03-29T06:14:21;1.70;;;0.68;;
5195;SDS011;2617;51.006;12.436;2024-03-29T06:19:28;0.60;;;0.60;;
5195;SDS011;2617;51.006;12.436;2024-03-29T06:24:32;0.70;;;0.70;;
5195;SDS011;2617;51.006;12.436;2024-03-29T06:29:34;1.80;;;0.80;;
5195;SDS011;2617;51.006;12.436;2024-03-29T06:34:37;0.67;;;0.67;;
5195;SDS011;2617;51.006;12.436;2024-03-29T06:39:40;1.05;;;1.02;;
5195;SDS011;2617;51.006;12.436;2024-03-29T06:44:42;0.40;;;0.40;;
5195;SDS011;2617;51.006;12.436;2024-03-29T06:49:44;1.30;;;0.50;;
5195;SDS011;2617;51.006;12.436;2024-03-29T06:54:47;3.27;;;0.80;;
5195;SDS011;2617;51.006;12.436;2024-03-29T06:59:50;1.30;;;1.00;;
5195;SDS011;2617;51.006;12.436;2024-03-29T07:04:52;1.67;;;1.57;;
5195;SDS011;2617;51.006;12.436;2024-03-29T07:09:56;2.20;;;1.20;;
5195;SDS011;2617;51.006;12.436;2024-03-29T07:14:58;1.37;;;0.90;;
5195;SDS011;2617;51.006;12.436;2024-03-29T07:20:01;0.50;;;0.50;;
5195;SDS011;2617;51.006;12.436;2024-03-29T07:25:03;0.50;;;0.50;;
5195;SDS011;2617;51.006;12.436;2024-03-29T07:30:06;2.60;;;0.63;;
5195;SDS011;2617;51.006;12.436;2024-03-29T07:35:10;0.50;;;0.50;;
5195;SDS011;2617;51.006;12.436;2024-03-29T07:40:13;0.90;;;0.62;;
5195;SDS011;2617;51.006;12.436;2024-03-29T07:45:16;0.60;;;0.50;;
5195;SDS011;2617;51.006;12.436;2024-03-29T07:50:20;0.80;;;0.60;;
5195;SDS011;2617;51.006;12.436;2024-03-29T07:55:24;1.57;;;0.60;;
5195;SDS011;2617;51.006;12.436;2024-03-29T08:00:26;3.03;;;0.82;;
5195;SDS011;2617;51.006;12.436;2024-03-29T08:05:29;0.70;;;0.70;;
5195;SDS011;2617;51.006;12.436;2024-03-29T08:10:31;1.00;;;0.50;;
5195;SDS011;2617;51.006;12.436;2024-03-29T08:15:34;1.90;;;0.80;;
5195;SDS011;2617;51.006;12.436;2024-03-29T08:20:36;0.93;;;0.57;;
5195;SDS011;2617;51.006;12.436;2024-03-29T08:25:39;2.45;;;1.10;;
5195;SDS011;2617;51.006;12.436;2024-03-29T08:30:41;6.20;;;1.37;;
5195;SDS011;2617;51.006;12.436;2024-03-29T08:35:44;1.70;;;0.63;;
5195;SDS011;2617;51.006;12.436;2024-03-29T08:40:47;0.67;;;0.67;;
5195;SDS011;2617;51.006;12.436;2024-03-29T08:45:49;0.60;;;0.60;;
5195;SDS011;2617;51.006;12.436;2024-03-29T08:50:52;1.25;;;1.12;;
5195;SDS011;2617;51.006;12.436;2024-03-29T08:55:55;0.80;;;0.70;;
5195;SDS011;2617;51.006;12.436;2024-03-29T09:00:57;0.63;;;0.63;;
5195;SDS011;2617;51.006;12.436;2024-03-29T09:06:00;0.93;;;0.62;;
5195;SDS011;2617;51.006;12.436;2024-03-29T09:11:02;0.60;;;0.60;;
5195;SDS011;2617;51.006;12.436;2024-03-29T09:16:05;0.57;;;0.57;;
5195;SDS011;2617;51.006;12.436;2024-03-29T09:21:08;5.43;;;1.40;;
5195;SDS011;2617;51.006;12.436;2024-03-29T09:26:10;1.23;;;0.97;;
5195;SDS011;2617;51.006;12.436;2024-03-29T09:31:13;1.30;;;1.20;;
5195;SDS011;2617;51.006;12.436;2024-03-29T09:36:15;2.00;;;1.10;;
5195;SDS011;2617;51.006;12.436;2024-03-29T09:41:19;1.70;;;1.00;;
5195;SDS011;2617;51.006;12.436;2024-03-29T09:46:22;1.07;;;0.90;;
5195;SDS011;2617;51.006;12.436;2024-03-29T09:51:25;1.10;;;0.70;;
5195;SDS011;2617;51.006;12.436;2024-03-29T09:56:28;0.60;;;0.60;;
5195;SDS011;2617;51.006;12.436;2024-03-29T10:01:30;2.50;;;1.93;;
5195;SDS011;2617;51.006;12.436;2024-03-29T10:06:34;2.40;;;0.97;;
5195;SDS011;2617;51.006;12.436;2024-03-29T10:11:35;1.10;;;1.10;;
5195;SDS011;2617;51.006;12.436;2024-03-29T10:16:37;1.58;;;1.02;;
5195;SDS011;2617;51.006;12.436;2024-03-29T10:21:40;0.77;;;0.60;;
5195;SDS011;2617;51.006;12.436;2024-03-29T10:26:42;1.03;;;0.80;;
5195;SDS011;2617;51.006;12.436;2024-03-29T10:31:44;2.90;;;0.80;;
5195;SDS011;2617;51.006;12.436;2024-03-29T10:36:48;0.70;;;0.60;;
5195;SDS011;2617;51.006;12.436;2024-03-29T10:41:50;1.00;;;0.80;;
5195;SDS011;2617;51.006;12.436;2024-03-29T10:46:54;2.65;;;0.93;;
5195;SDS011;2617;51.006;12.436;2024-03-29T10:51:56;1.23;;;0.77;;
5195;SDS011;2617;51.006;12.436;2024-03-29T10:56:59;0.60;;;0.50;;
5195;SDS011;2617;51.006;12.436;2024-03-29T11:02:04;1.03;;;0.90;;
5195;SDS011;2617;51.006;12.436;2024-03-29T11:07:06;0.97;;;0.60;;
5195;SDS011;2617;51.006;12.436;2024-03-29T11:12:08;0.93;;;0.63;;
5195;SDS011;2617;51.006;12.436;2024-03-29T11:17:10;1.97;;;1.17;;
5195;SDS011;2617;51.006;12.436;2024-03-29T11:22:13;14.37;;;7.70;;
5195;SDS011;2617;51.006;12.436;2024-03-29T11:27:16;13.27;;;6.90;;
5195;SDS011;2617;51.006;12.436;2024-03-29T11:37:35;4.90;;;1.07;;
5195;SDS011;2617;51.006;12.436;2024-03-29T11:42:43;0.50;;;0.50;;
5195;SDS011;2617;51.006;12.436;2024-03-29T11:47:48;3.03;;;0.60;;
5195;SDS011;2617;51.006;12.436;2024-03-29T11:52:51;1.10;;;0.60;;
5195;SDS011;2617;51.006;12.436;2024-03-29T11:57:54;0.50;;;0.50;;
5195;SDS011;2617;51.006;12.436;2024-03-29T12:02:56;8.70;;;0.67;;
5195;SDS011;2617;51.006;12.436;2024-03-29T12:07:59;0.50;;;0.50;;
5195;SDS011;2617;51.006;12.436;2024-03-29T12:13:01;0.50;;;0.50;;
5195;SDS011;2617;51.006;12.436;2024-03-29T12:18:04;0.60;;;0.60;;
5195;SDS011;2617;51.006;12.436;2024-03-29T12:23:08;0.60;;;0.50;;
5195;SDS011;2617;51.006;12.436;2024-03-29T12:28:10;0.57;;;0.57;;
5195;SDS011;2617;51.006;12.436;2024-03-29T12:33:14;0.70;;;0.67;;
5195;SDS011;2617;51.006;12.436;2024-03-29T12:38:17;1.00;;;0.60;;
5195;SDS011;2617;51.006;12.436;2024-03-29T12:43:20;0.50;;;0.50;;
5195;SDS011;2617;51.006;12.436;2024-03-29T12:48:23;1.17;;;0.47;;
5195;SDS011;2617;51.006;12.436;2024-03-29T12:53:25;1.30;;;1.10;;
5195;SDS011;2617;51.006;12.436;2024-03-29T12:58:28;0.93;;;0.90;;
5195;SDS011;2617;51.006;12.436;2024-03-29T13:03:30;0.97;;;0.97;;
5195;SDS011;2617;51.006;12.436;2024-03-29T13:08:33;0.98;;;0.82;;
5195;SDS011;2617;51.006;12.436;2024-03-29T13:13:35;1.27;;;1.17;;
5195;SDS011;2617;51.006;12.436;2024-03-29T13:18:37;0.60;;;0.60;;
5195;SDS011;2617;51.006;12.436;2024-03-29T13:23:41;0.80;;;0.80;;
5195;SDS011;2617;51.006;12.436;2024-03-29T13:28:43;0.77;;;0.77;;
5195;SDS011;2617;51.006;12.436;2024-03-29T13:33:46;3.37;;;0.70;;
5195;SDS011;2617;51.006;12.436;2024-03-29T13:38:49;0.73;;;0.73;;
5195;SDS011;2617;51.006;12.436;2024-03-29T13:43:51;1.03;;;0.93;;
5195;SDS011;2617;51.006;12.436;2024-03-29T13:48:55;1.55;;;1.02;;
5195;SDS011;2617;51.006;12.436;2024-03-29T13:53:57;1.90;;;1.23;;
5195;SDS011;2617;51.006;12.436;2024-03-29T13:59:00;1.50;;;1.50;;
5195;SDS011;2617;51.006;12.436;2024-03-29T14:04:03;0.60;;;0.60;;
5195;SDS011;2617;51.006;12.436;2024-03-29T14:09:07;0.63;;;0.63;;
5195;SDS011;2617;51.006;12.436;2024-03-29T14:14:09;1.12;;;1.02;;
5195;SDS011;2617;51.006;12.436;2024-03-29T14:19:12;1.53;;;0.90;;
5195;SDS011;2617;51.006;12.436;2024-03-29T14:24:14;0.60;;;0.60;;
5195;SDS011;2617;51.006;12.436;2024-03-29T14:29:17;1.13;;;1.03;;
5195;SDS011;2617;51.006;12.436;2024-03-29T14:34:20;1.63;;;1.00;;
5195;SDS011;2617;51.006;12.436;2024-03-29T14:39:22;2.37;;;1.07;;
5195;SDS011;2617;51.006;12.436;2024-03-29T14:44:25;0.60;;;0.60;;
5195;SDS011;2617;51.006;12.436;2024-03-29T14:49:28;0.43;;;0.43;;
5195;SDS011;2617;51.006;12.436;2024-03-29T14:54:31;1.40;;;0.60;;
5195;SDS011;2617;51.006;12.436;2024-03-29T14:59:34;0.60;;;0.60;;
5195;SDS011;2617;51.006;12.436;2024-03-29T15:04:36;0.60;;;0.60;;
5195;SDS011;2617;51.006;12.436;2024-03-29T15:09:39;0.77;;;0.70;;
5195;SDS011;2617;51.006;12.436;2024-03-29T15:14:41;0.60;;;0.60;;
5195;SDS011;2617;51.006;12.436;2024-03-29T15:19:46;0.80;;;0.60;;
5195;SDS011;2617;51.006;12.436;2024-03-29T15:24:49;5.07;;;0.90;;
5195;SDS011;2617;51.006;12.436;2024-03-29T15:29:53;0.63;;;0.50;;
5195;SDS011;2617;51.006;12.436;2024-03-29T15:34:55;0.50;;;0.50;;
5195;SDS011;2617;51.006;12.436;2024-03-29T15:39:57;0.60;;;0.60;;
5195;SDS011;2617;51.006;12.436;2024-03-29T15:44:59;0.53;;;0.50;;
5195;SDS011;2617;51.006;12.436;2024-03-29T15:50:04;0.60;;;0.57;;
5195;SDS011;2617;51.006;12.436;2024-03-29T15:55:09;2.10;;;0.70;;
5195;SDS011;2617;51.006;12.436;2024-03-29T16:00:12;1.40;;;1.30;;
5195;SDS011;2617;51.006;12.436;2024-03-29T16:05:16;7.97;;;5.30;;
5195;SDS011;2617;51.006;12.436;2024-03-29T16:10:19;14.67;;;9.90;;
5195;SDS011;2617;51.006;12.436;2024-03-29T16:15:21;15.43;;;8.50;;
5195;SDS011;2617;51.006;12.436;2024-03-29T16:20:23;15.03;;;9.50;;
5195;SDS011;2617;51.006;12.436;2024-03-29T16:25:27;12.82;;;10.15;;
5195;SDS011;2617;51.006;12.436;2024-03-29T16:30:30;10.38;;;4.80;;
5195;SDS011;2617;51.006;12.436;2024-03-29T16:35:32;1.90;;;1.30;;
5195;SDS011;2617;51.006;12.436;2024-03-29T16:40:35;1.33;;;1.23;;
5195;SDS011;2617;51.006;12.436;2024-03-29T16:45:37;1.53;;;1.07;;
5195;SDS011;2617;51.006;12.436;2024-03-29T16:50:44;1.30;;;1.23;;
5195;SDS011;2617;51.006;12.436;2024-03-29T16:55:47;2.33;;;1.43;;
5195;SDS011;2617;51.006;12.436;2024-03-29T17:00:49;0.90;;;0.90;;
5195;SDS011;2617;51.006;12.436;2024-03-29T17:05:52;1.73;;;1.63;;
5195;SDS011;2617;51.006;12.436;2024-03-29T17:10:54;8.03;;;3.70;;
5195;SDS011;2617;51.006;12.436;2024-03-29T17:15:57;5.28;;;3.33;;
5195;SDS011;2617;51.006;12.436;2024-03-29T17:20:59;3.03;;;2.77;;
5195;SDS011;2617;51.006;12.436;2024-03-29T17:26:02;5.28;;;2.02;;
5195;SDS011;2617;51.006;12.436;2024-03-29T17:31:04;2.83;;;2.17;;
5195;SDS011;2617;51.006;12.436;2024-03-29T17:36:07;6.53;;;4.68;;
5195;SDS011;2617;51.006;12.436;2024-03-29T17:41:09;3.50;;;3.20;;
5195;SDS011;2617;51.006;12.436;2024-03-29T17:46:13;3.07;;;2.77;;
5195;SDS011;2617;51.006;12.436;2024-03-29T17:51:15;7.73;;;6.17;;
5195;SDS011;2617;51.006;12.436;2024-03-29T17:56:18;6.20;;;4.03;;
5195;SDS011;2617;51.006;12.436;2024-03-29T18:01:20;5.57;;;4.70;;
5195;SDS011;2617;51.006;12.436;2024-03-29T18:06:23;4.77;;;3.83;;
5195;SDS011;2617;51.006;12.436;2024-03-29T18:11:25;6.43;;;4.80;;
5195;SDS011;2617;51.006;12.436;2024-03-29T18:16:28;9.20;;;5.10;;
5195;SDS011;2617;51.006;12.436;2024-03-29T18:21:30;8.30;;;5.33;;
5195;SDS011;2617;51.006;12.436;2024-03-29T18:26:33;8.37;;;6.00;;
5195;SDS011;2617;51.006;12.436;2024-03-29T18:31:36;9.82;;;6.45;;
5195;SDS011;2617;51.006;12.436;2024-03-29T18:36:38;10.03;;;6.20;;
5195;SDS011;2617;51.006;12.436;2024-03-29T18:41:40;7.80;;;5.53;;
5195;SDS011;2617;51.006;12.436;2024-03-29T18:46:43;7.47;;;4.80;;
5195;SDS011;2617;51.006;12.436;2024-03-29T18:51:48;16.55;;;9.70;;
5195;SDS011;2617;51.006;12.436;2024-03-29T18:56:49;12.70;;;9.53;;
5195;SDS011;2617;51.006;12.436;2024-03-29T19:01:53;17.23;;;12.47;;
5195;SDS011;2617;51.006;12.436;2024-03-29T19:06:56;20.13;;;16.00;;
5195;SDS011;2617;51.006;12.436;2024-03-29T19:11:58;9.83;;;8.07;;
5195;SDS011;2617;51.006;12.436;2024-03-29T19:17:01;27.00;;;17.50;;
5195;SDS011;2617;51.006;12.436;2024-03-29T19:22:04;30.04;;;16.62;;
5195;SDS011;2617;51.006;12.436;2024-03-29T19:27:06;28.53;;;17.10;;
5195;SDS011;2617;51.006;12.436;2024-03-29T19:32:09;13.63;;;9.03;;
5195;SDS011;2617;51.006;12.436;2024-03-29T19:37:11;31.50;;;17.92;;
5195;SDS011;2617;51.006;12.436;2024-03-29T19:42:13;41.63;;;22.97;;
5195;SDS011;2617;51.006;12.436;2024-03-29T19:47:16;12.07;;;7.13;;
5195;SDS011;2617;51.006;12.436;2024-03-29T19:52:18;4.57;;;3.40;;
5195;SDS011;2617;51.006;12.436;2024-03-29T19:57:21;2.57;;;2.37;;
5195;SDS011;2617;51.006;12.436;2024-03-29T20:02:23;4.40;;;3.60;;
5195;SDS011;2617;51.006;12.436;2024-03-29T20:07:25;4.90;;;3.97;;
5195;SDS011;2617;51.006;12.436;2024-03-29T20:12:28;7.43;;;4.37;;
5195;SDS011;2617;51.006;12.436;2024-03-29T20:17:31;4.03;;;3.70;;
5195;SDS011;2617;51.006;12.436;2024-03-29T20:22:33;17.20;;;10.45;;
5195;SDS011;2617;51.006;12.436;2024-03-29T20:27:36;4.80;;;4.30;;
5195;SDS011;2617;51.006;12.436;2024-03-29T20:32:39;5.50;;;4.78;;
5195;SDS011;2617;51.006;12.436;2024-03-29T20:37:41;3.62;;;3.30;;
5195;SDS011;2617;51.006;12.436;2024-03-29T20:42:44;7.12;;;5.10;;
5195;SDS011;2617;51.006;12.436;2024-03-29T20:47:46;4.37;;;3.80;;
5195;SDS011;2617;51.006;12.436;2024-03-29T20:52:51;3.80;;;3.37;;
5195;SDS011;2617;51.006;12.436;2024-03-29T20:57:54;4.07;;;3.57;;
5195;SDS011;2617;51.006;12.436;2024-03-29T21:02:56;5.63;;;4.20;;
5195;SDS011;2617;51.006;12.436;2024-03-29T21:08:04;4.60;;;3.20;;
5195;SDS011;2617;51.006;12.436;2024-03-29T21:13:09;6.63;;;5.00;;
5195;SDS011;2617;51.006;12.436;2024-03-29T21:18:12;3.97;;;2.90;;
5195;SDS011;2617;51.006;12.436;2024-03-29T21:23:15;4.80;;;2.37;;
5195;SDS011;2617;51.006;12.436;2024-03-29T21:28:17;7.00;;;4.50;;
5195;SDS011;2617;51.006;12.436;2024-03-29T21:33:19;8.80;;;5.50;;
5195;SDS011;2617;51.006;12.436;2024-03-29T21:38:22;3.43;;;3.13;;
5195;SDS011;2617;51.006;12.436;2024-03-29T21:43:24;13.30;;;8.03;;
5195;SDS011;2617;51.006;12.436;2024-03-29T21:48:28;15.63;;;9.53;;
5195;SDS011;2617;51.006;12.436;2024-03-29T21:53:30;7.40;;;5.03;;
5195;SDS011;2617;51.006;12.436;2024-03-29T21:58:33;8.10;;;6.10;;
5195;SDS011;2617;51.006;12.436;2024-03-29T22:03:36;6.32;;;4.53;;
5195;SDS011;2617;51.006;12.436;2024-03-29T22:08:38;4.90;;;3.50;;
5195;SDS011;2617;51.006;12.436;2024-03-29T22:13:41;5.35;;;3.72;;
5195;SDS011;2617;51.006;12.436;2024-03-29T22:18:44;5.33;;;3.90;;
5195;SDS011;2617;51.006;12.436;2024-03-29T22:23:46;4.20;;;3.62;;
5195;SDS011;2617;51.006;12.436;2024-03-29T22:28:49;5.07;;;3.90;;
5195;SDS011;2617;51.006;12.436;2024-03-29T22:33:51;4.43;;;3.50;;
5195;SDS011;2617;51.006;12.436;2024-03-29T22:38:55;4.03;;;3.57;;
5195;SDS011;2617;51.006;12.436;2024-03-29T22:43:57;4.27;;;3.40;;
5195;SDS011;2617;51.006;12.436;2024-03-29T22:49:00;5.90;;;3.42;;
5195;SDS011;2617;51.006;12.436;2024-03-29T22:54:03;6.63;;;3.73;;
5195;SDS011;2617;51.006;12.436;2024-03-29T22:59:05;4.70;;;3.62;;
5195;SDS011;2617;51.006;12.436;2024-03-29T23:04:08;3.73;;;3.43;;
5195;SDS011;2617;51.006;12.436;2024-03-29T23:09:10;4.73;;;3.73;;
5195;SDS011;2617;51.006;12.436;2024-03-29T23:14:12;5.33;;;4.00;;
5195;SDS011;2617;51.006;12.436;2024-03-29T23:19:15;4.72;;;3.85;;
5195;SDS011;2617;51.006;12.436;2024-03-29T23:24:17;4.07;;;3.50;;
5195;SDS011;2617;51.006;12.436;2024-03-29T23:29:20;4.10;;;3.70;;
5195;SDS011;2617;51.006;12.436;2024-03-29T23:34:23;5.10;;;3.70;;
5195;SDS011;2617;51.006;12.436;2024-03-29T23:39:27;4.43;;;3.93;;
5195;SDS011;2617;51.006;12.436;2024-03-29T23:44:30;8.80;;;4.97;;
5195;SDS011;2617;51.006;12.436;2024-03-29T23:49:32;6.70;;;4.90;;
5195;SDS011;2617;51.006;12.436;2024-03-29T23:54:35;5.80;;;4.80;;
5195;SDS011;2617;51.006;12.436;2024-03-29T23:59:37;7.03;;;4.43;;
